Time;durP1;ratioP1;P1;durP2;ratioP2;P2;SDS_P1;SDS_P2;PMS_P1;PMS_P2;Temp;Humidity;BMP_temperature;BMP_pressure;BME280_temperature;BME280_humidity;BME280_pressure;Samples;Min_cycle;Max_cycle;Signal;HPM_P1;HPM_P2
2022/07/28 00:01:11;;;;;;;25.13;5.15;;;17.20;99.90;;;;;;4894797;29;20581;-70
2022/07/28 00:03:39;;;;;;;20.38;5.63;;;17.20;99.90;;;;;;4878654;29;20057;-71
2022/07/28 00:06:06;;;;;;;14.27;4.38;;;17.20;99.90;;;;;;4893870;29;20077;-71
2022/07/28 00:08:33;;;;;;;18.88;5.03;;;17.20;99.90;;;;;;4893930;29;20051;-71
2022/07/28 00:11:01;;;;;;;13.75;4.05;;;17.20;99.90;;;;;;4895230;29;20504;-72
2022/07/28 00:13:28;;;;;;;16.52;3.83;;;17.20;99.90;;;;;;4893773;29;20056;-71
2022/07/28 00:15:56;;;;;;;8.20;3.13;;;17.20;99.90;;;;;;4895286;29;20059;-71
2022/07/28 00:18:23;;;;;;;6.63;3.20;;;17.10;99.90;;;;;;4894970;29;20536;-71
2022/07/28 00:20:50;;;;;;;8.95;3.08;;;17.10;99.90;;;;;;4878266;29;20145;-71
2022/07/28 00:23:17;;;;;;;5.18;2.80;;;17.10;99.90;;;;;;4895693;29;20424;-71
2022/07/28 00:25:44;;;;;;;6.65;2.63;;;17.00;99.90;;;;;;4894066;29;20135;-71
2022/07/28 00:28:13;;;;;;;7.15;2.83;;;17.00;99.90;;;;;;4895435;29;20061;-71
2022/07/28 00:30:40;;;;;;;6.88;2.92;;;17.00;99.90;;;;;;4894055;29;20127;-71
2022/07/28 00:33:07;;;;;;;10.32;3.40;;;17.00;99.90;;;;;;4894989;29;20140;-71
2022/07/28 00:35:34;;;;;;;10.52;2.83;;;16.90;99.90;;;;;;4894863;29;20135;-71
2022/07/28 00:38:01;;;;;;;16.65;2.95;;;16.90;99.90;;;;;;4895169;29;20148;-71
2022/07/28 00:43:09;;;;;;;5.05;1.90;;;16.80;99.90;;;;;;4895077;29;20101;-71
2022/07/28 00:45:38;;;;;;;3.92;1.80;;;16.80;99.90;;;;;;4893959;29;20053;-71
2022/07/28 00:48:05;;;;;;;6.38;1.75;;;16.80;99.90;;;;;;4893917;29;20055;-71
2022/07/28 00:50:33;;;;;;;6.43;1.98;;;16.80;99.90;;;;;;4893818;29;20051;-70
2022/07/28 00:53:00;;;;;;;8.52;1.58;;;16.80;99.90;;;;;;4895172;29;20098;-71
2022/07/28 00:55:27;;;;;;;4.93;1.88;;;16.70;99.90;;;;;;4894555;29;20144;-71
2022/07/28 00:57:54;;;;;;;6.65;1.75;;;16.70;99.90;;;;;;4893241;29;20424;-71
2022/07/28 01:00:22;;;;;;;3.00;1.63;;;16.70;99.90;;;;;;4893124;29;20078;-71
2022/07/28 01:02:51;;;;;;;3.65;2.03;;;16.60;99.90;;;;;;4894620;29;20144;-71
2022/07/28 01:05:19;;;;;;;6.60;2.20;;;16.60;99.90;;;;;;4894597;29;20056;-70
2022/07/28 01:08:01;;;;;;;7.07;2.38;;;16.60;99.90;;;;;;4895912;29;20048;-70
2022/07/28 01:10:36;;;;;;;9.07;2.72;;;16.50;99.90;;;;;;4898297;29;20116;-71
2022/07/28 01:13:10;;;;;;;4.60;2.72;;;16.50;99.90;;;;;;4897028;29;20151;-70
2022/07/28 01:15:44;;;;;;;6.13;2.95;;;16.50;99.90;;;;;;4897225;29;20202;-70
2022/07/28 01:18:17;;;;;;;5.20;2.63;;;16.40;99.90;;;;;;4898086;29;20071;-71
2022/07/28 01:20:47;;;;;;;12.90;3.42;;;16.50;99.90;;;;;;4898245;29;20087;-71
2022/07/28 01:23:58;;;;;;;11.90;3.83;;;16.40;99.90;;;;;;4896688;29;20048;-71
2022/07/28 01:26:42;;;;;;;35.20;6.13;;;16.40;99.90;;;;;;4854920;29;20048;-71
2022/07/28 01:29:26;;;;;;;14.88;4.10;;;16.30;99.90;;;;;;4898155;29;20533;-70
2022/07/28 01:32:01;;;;;;;11.63;3.47;;;16.30;99.90;;;;;;4896839;29;20048;-71
2022/07/28 01:34:33;;;;;;;21.00;3.13;;;16.30;99.90;;;;;;4897613;29;20061;-71
2022/07/28 01:37:06;;;;;;;17.27;3.22;;;16.30;99.90;;;;;;4896702;29;20075;-71
2022/07/28 01:39:34;;;;;;;;;;;16.30;99.90;;;;;;4898164;29;20057;-70
2022/07/28 01:42:04;;;;;;;9.82;3.00;;;16.30;99.90;;;;;;4897755;29;19927;-71
2022/07/28 01:44:34;;;;;;;6.38;3.25;;;16.30;99.90;;;;;;4897481;29;20423;-71
2022/07/28 01:47:06;;;;;;;7.90;4.40;;;16.30;99.90;;;;;;4897333;29;20052;-71
2022/07/28 01:49:35;;;;;;;9.65;4.03;;;16.20;99.90;;;;;;4897104;29;20510;-71
2022/07/28 01:52:05;;;;;;;9.20;4.03;;;16.30;99.90;;;;;;4897340;29;20064;-70
2022/07/28 01:54:33;;;;;;;10.13;4.57;;;16.30;99.90;;;;;;4897281;29;20112;-71
2022/07/28 01:57:02;;;;;;;11.23;3.75;;;16.30;99.90;;;;;;4896242;29;20580;-70
2022/07/28 01:59:30;;;;;;;7.13;3.13;;;16.30;99.90;;;;;;4895588;29;20596;-71
2022/07/28 02:02:00;;;;;;;10.38;4.07;;;16.20;99.90;;;;;;4880385;29;20486;-71
2022/07/28 02:04:29;;;;;;;6.97;2.78;;;16.10;99.90;;;;;;4897218;29;20593;-71
2022/07/28 02:06:57;;;;;;;7.88;3.47;;;16.10;99.90;;;;;;4895737;29;20063;-71
2022/07/28 02:09:25;;;;;;;6.68;3.38;;;16.00;99.90;;;;;;4897541;29;20103;-71
2022/07/28 02:11:54;;;;;;;12.13;3.50;;;16.00;99.90;;;;;;4896684;29;20051;-71
2022/07/28 02:14:23;;;;;;;6.97;3.40;;;15.90;99.90;;;;;;4895653;29;20096;-71
2022/07/28 02:16:54;;;;;;;15.88;4.47;;;15.90;99.90;;;;;;4896824;29;20147;-71
2022/07/28 02:19:22;;;;;;;10.77;4.18;;;15.90;99.90;;;;;;4895204;29;20052;-71
2022/07/28 02:21:51;;;;;;;12.30;3.55;;;15.90;99.90;;;;;;4895811;29;20056;-71
2022/07/28 02:24:21;;;;;;;14.20;4.10;;;15.90;99.90;;;;;;4895488;29;20052;-71
2022/07/28 02:26:53;;;;;;;19.60;4.20;;;15.80;99.90;;;;;;4896957;29;20575;-71
2022/07/28 02:29:24;;;;;;;13.55;4.63;;;15.80;99.90;;;;;;4896832;29;20147;-71
2022/07/28 02:31:57;;;;;;;27.45;5.13;;;15.90;99.90;;;;;;4895188;29;20113;-70
2022/07/28 02:34:26;;;;;;;32.70;5.82;;;15.90;99.90;;;;;;4896669;29;20056;-72
2022/07/28 02:36:58;;;;;;;49.10;6.32;;;15.90;99.90;;;;;;4896118;29;20060;-70
2022/07/28 02:39:31;;;;;;;53.65;6.13;;;15.80;99.90;;;;;;4879834;29;20422;-70
2022/07/28 02:42:03;;;;;;;36.53;5.75;;;15.80;99.90;;;;;;4896198;29;20067;-71
2022/07/28 02:44:35;;;;;;;;;;;15.80;99.90;;;;;;4896650;29;20052;-71
2022/07/28 02:47:09;;;;;;;41.83;6.68;;;15.80;99.90;;;;;;4896681;29;20029;-71
2022/07/28 02:49:37;;;;;;;30.17;5.32;;;15.80;99.90;;;;;;4896089;29;20048;-71
2022/07/28 02:52:07;;;;;;;35.70;6.60;;;15.80;99.90;;;;;;4896331;29;20088;-70
2022/07/28 02:54:36;;;;;;;24.27;4.57;;;15.80;99.90;;;;;;4894835;29;20060;-70
2022/07/28 02:57:05;;;;;;;16.77;4.65;;;15.80;99.90;;;;;;4895694;29;20064;-71
2022/07/28 02:59:34;;;;;;;17.80;4.10;;;15.80;99.90;;;;;;4895957;29;20056;-71
2022/07/28 03:02:02;;;;;;;28.75;5.80;;;15.80;99.90;;;;;;4896063;29;20049;-70
2022/07/28 03:07:16;;;;;;;14.77;3.47;;;15.80;99.90;;;;;;4895905;29;20048;-71
2022/07/28 03:09:45;;;;;;;23.65;5.32;;;15.80;99.90;;;;;;4879259;29;20049;-71
2022/07/28 03:12:13;;;;;;;21.83;4.68;;;15.80;99.90;;;;;;4895506;29;20060;-71
2022/07/28 03:14:41;;;;;;;14.52;5.05;;;15.80;99.90;;;;;;4894558;29;20120;-71
2022/07/28 03:17:08;;;;;;;14.57;5.72;;;15.90;99.90;;;;;;4896144;29;20049;-70
2022/07/28 03:19:35;;;;;;;15.55;4.38;;;15.90;99.90;;;;;;4896026;29;20049;-70
2022/07/28 03:22:03;;;;;;;19.13;5.07;;;15.90;99.90;;;;;;4894482;29;20061;-70
2022/07/28 03:24:36;;;;;;;10.25;3.33;;;16.00;99.90;;;;;;4895746;29;20053;-70
2022/07/28 03:27:11;;;;;;;13.02;3.88;;;16.00;99.90;;;;;;4895682;29;20052;-71
2022/07/28 03:29:41;;;;;;;8.80;3.10;;;16.00;99.90;;;;;;4895453;29;20053;-70
2022/07/28 03:32:09;;;;;;;6.43;2.50;;;16.10;99.90;;;;;;4894212;29;20463;-70
2022/07/28 03:34:36;;;;;;;8.95;2.17;;;16.10;99.90;;;;;;4895525;29;20048;-70
2022/07/28 03:37:08;;;;;;;8.23;3.13;;;16.20;99.90;;;;;;4894527;29;20066;-70
2022/07/28 03:39:40;;;;;;;6.80;2.25;;;16.20;99.90;;;;;;4894275;29;20593;-71
2022/07/28 03:42:09;;;;;;;4.85;1.65;;;16.20;99.90;;;;;;4895696;29;20057;-71
2022/07/28 03:44:38;;;;;;;11.48;2.10;;;16.20;99.90;;;;;;4895356;29;20082;-71
2022/07/28 03:47:05;;;;;;;12.32;2.10;;;16.30;99.90;;;;;;4894614;29;20073;-70
2022/07/28 03:49:33;;;;;;;5.88;2.03;;;16.30;99.90;;;;;;4895065;29;20112;-70
2022/07/28 03:52:00;;;;;;;4.40;1.60;;;16.40;99.90;;;;;;4894148;29;20060;-71
2022/07/28 03:54:27;;;;;;;4.20;1.50;;;16.40;99.90;;;;;;4895435;29;20108;-70
2022/07/28 03:56:56;;;;;;;2.30;1.30;;;16.50;99.90;;;;;;4894990;29;20143;-71
2022/07/28 03:59:23;;;;;;;6.70;1.58;;;16.50;99.90;;;;;;4895046;29;20494;-71
2022/07/28 04:01:50;;;;;;;2.50;1.13;;;16.50;99.90;;;;;;4895100;29;20116;-70
2022/07/28 04:04:17;;;;;;;5.25;1.33;;;16.50;99.90;;;;;;4894060;29;20048;-70
2022/07/28 04:06:44;;;;;;;4.88;3.25;;;16.60;99.90;;;;;;4895372;29;20529;-70
2022/07/28 04:09:12;;;;;;;7.95;1.80;;;16.60;99.90;;;;;;4895079;29;20048;-70
2022/07/28 04:11:39;;;;;;;2.55;1.13;;;16.70;99.90;;;;;;4895027;29;20421;-70
2022/07/28 04:14:07;;;;;;;5.38;1.17;;;16.70;99.90;;;;;;4893948;29;20053;-69
2022/07/28 04:16:34;;;;;;;4.85;1.33;;;16.80;99.90;;;;;;4895307;29;20053;-70
2022/07/28 04:19:01;;;;;;;3.72;1.42;;;16.80;99.90;;;;;;4895277;29;20082;-70
2022/07/28 04:21:29;;;;;;;3.60;1.20;;;16.90;99.90;;;;;;4895555;29;20112;-69
2022/07/28 04:23:56;;;;;;;7.97;1.35;;;17.00;99.90;;;;;;4895106;29;20049;-69
2022/07/28 04:26:23;;;;;;;4.82;1.42;;;17.10;99.90;;;;;;4895221;29;20053;-70
2022/07/28 04:28:50;;;;;;;3.05;1.13;;;17.10;99.90;;;;;;4895092;29;20071;-69
2022/07/28 04:31:19;;;;;;;7.30;1.27;;;17.20;99.90;;;;;;4895169;29;20052;-70
2022/07/28 04:33:46;;;;;;;4.15;0.98;;;17.20;99.90;;;;;;4895152;29;20524;-69
2022/07/28 04:36:13;;;;;;;5.57;2.13;;;17.40;99.90;;;;;;4895215;29;20044;-70
2022/07/28 04:38:41;;;;;;;7.18;1.20;;;17.60;99.90;;;;;;4895111;29;20112;-69
2022/07/28 04:41:08;;;;;;;6.70;3.30;;;17.70;99.90;;;;;;4895883;29;20056;-70
2022/07/28 04:43:36;;;;;;;3.25;1.70;;;17.90;99.90;;;;;;4897393;29;20056;-69
2022/07/28 04:46:03;;;;;;;4.35;1.50;;;18.10;99.90;;;;;;4898777;29;20060;-70
2022/07/28 04:48:32;;;;;;;5.60;1.88;;;18.20;99.90;;;;;;4899027;29;20116;-70
2022/07/28 04:50:59;;;;;;;5.22;2.20;;;18.30;99.90;;;;;;4897705;29;20104;-70
2022/07/28 04:53:27;;;;;;;2.30;1.08;;;18.40;99.90;;;;;;4897872;29;20052;-71
2022/07/28 04:55:56;;;;;;;1.15;0.95;;;18.40;99.90;;;;;;4898577;29;20056;-70
2022/07/28 04:58:23;;;;;;;6.07;1.27;;;18.40;99.90;;;;;;4898620;29;20052;-70
2022/07/28 05:00:51;;;;;;;1.60;0.75;;;18.40;99.90;;;;;;4898443;29;20083;-70
2022/07/28 05:03:19;;;;;;;3.38;0.80;;;18.30;99.90;;;;;;4897820;29;20060;-70
2022/07/28 05:05:48;;;;;;;1.63;1.00;;;18.20;99.90;;;;;;4898401;29;20139;-70
2022/07/28 05:08:15;;;;;;;5.10;1.92;;;18.20;99.90;;;;;;4898352;29;20057;-70
2022/07/28 05:10:42;;;;;;;2.85;1.08;;;18.20;99.90;;;;;;4897707;29;20052;-70
2022/07/28 05:13:09;;;;;;;3.65;1.65;;;18.30;99.90;;;;;;4896069;29;20147;-70
2022/07/28 05:15:36;;;;;;;3.10;0.88;;;18.40;99.90;;;;;;4896398;29;20045;-70
2022/07/28 05:18:04;;;;;;;8.50;1.20;;;18.40;99.90;;;;;;4897040;29;20673;-70
2022/07/28 05:20:32;;;;;;;7.45;0.95;;;18.40;99.90;;;;;;4896082;29;20113;-69
2022/07/28 05:23:02;;;;;;;8.13;1.42;;;18.30;99.90;;;;;;4897405;29;20524;-69
2022/07/28 05:25:29;;;;;;;3.42;1.20;;;18.40;99.90;;;;;;4897371;29;20045;-69
2022/07/28 05:27:57;;;;;;;8.63;1.02;;;18.60;99.90;;;;;;4896197;29;20079;-70
2022/07/28 05:30:24;;;;;;;3.80;0.95;;;18.70;99.90;;;;;;4880865;29;20047;-69
2022/07/28 05:32:52;;;;;;;6.40;1.33;;;18.70;99.90;;;;;;4897404;29;20424;-70
2022/07/28 05:35:19;;;;;;;2.50;1.25;;;18.70;99.90;;;;;;4897693;29;20060;-70
2022/07/28 05:37:46;;;;;;;3.17;1.13;;;19.00;99.90;;;;;;4897594;29;20080;-70
2022/07/28 05:40:17;;;;;;;4.50;0.90;;;19.00;99.90;;;;;;4897420;29;20159;-70
2022/07/28 05:42:46;;;;;;;5.43;0.95;;;19.10;99.90;;;;;;4897128;29;20048;-69
2022/07/28 05:45:14;;;;;;;2.65;0.80;;;19.30;99.90;;;;;;4897239;29;20533;-69
2022/07/28 05:47:46;;;;;;;3.10;0.85;;;19.50;99.90;;;;;;4897364;29;20135;-69
2022/07/28 05:50:14;;;;;;;5.05;0.93;;;19.80;99.90;;;;;;4895767;29;20108;-69
2022/07/28 05:52:41;;;;;;;3.35;0.80;;;20.20;99.90;;;;;;4895496;29;20144;-69
2022/07/28 05:55:09;;;;;;;1.63;0.77;;;20.60;99.90;;;;;;4897655;29;20045;-70
2022/07/28 05:57:41;;;;;;;2.28;0.90;;;21.00;99.90;;;;;;4897658;29;20092;-69
2022/07/28 06:00:11;;;;;;;4.22;0.80;;;21.60;99.90;;;;;;4897473;29;20064;-70
2022/07/28 06:02:44;;;;;;;2.83;0.77;;;22.10;99.90;;;;;;4893134;29;20063;-71
2022/07/28 06:05:12;;;;;;;4.55;1.00;;;22.50;99.90;;;;;;4880919;29;20132;-70
2022/07/28 06:07:39;;;;;;;3.85;1.20;;;22.80;99.90;;;;;;4877355;29;20425;-71
2022/07/28 06:10:07;;;;;;;2.40;1.00;;;23.10;99.90;;;;;;4878230;29;20048;-71
2022/07/28 06:12:40;;;;;;;2.47;0.82;;;23.50;97.30;;;;;;4877193;29;20089;-71
2022/07/28 06:15:12;;;;;;;3.60;1.02;;;24.00;94.40;;;;;;4878655;29;20056;-71
2022/07/28 06:17:39;;;;;;;1.58;0.82;;;23.70;93.20;;;;;;4876959;29;20143;-71
2022/07/28 06:20:07;;;;;;;2.95;0.85;;;23.50;93.20;;;;;;4876705;29;20407;-71
2022/07/28 06:22:41;;;;;;;1.20;0.65;;;23.70;94.70;;;;;;4876889;29;20143;-71
2022/07/28 06:25:13;;;;;;;0.70;0.68;;;24.40;92.30;;;;;;4878153;29;20453;-71
2022/07/28 06:27:41;;;;;;;2.15;1.92;;;25.00;88.90;;;;;;4881322;29;20478;-71
2022/07/28 06:30:10;;;;;;;1.20;1.02;;;25.40;85.80;;;;;;4876666;29;20083;-71
2022/07/28 06:32:37;;;;;;;1.75;0.85;;;25.50;84.80;;;;;;4876950;29;20063;-71
2022/07/28 06:35:05;;;;;;;3.13;1.45;;;25.80;84.20;;;;;;4877718;29;20049;-71
2022/07/28 06:37:33;;;;;;;5.75;0.60;;;26.10;79.80;;;;;;4861032;29;20152;-70
2022/07/28 06:40:00;;;;;;;1.02;0.82;;;26.10;76.20;;;;;;4877540;29;20067;-69
2022/07/28 06:42:27;;;;;;;2.65;1.05;;;25.90;78.80;;;;;;4877937;29;20057;-69
2022/07/28 06:44:56;;;;;;;2.60;0.68;;;25.90;75.90;;;;;;4876175;29;20053;-70
2022/07/28 06:47:23;;;;;;;1.00;0.55;;;26.10;73.40;;;;;;4877603;29;20188;-70
2022/07/28 06:49:50;;;;;;;2.78;0.70;;;26.60;72.80;;;;;;4877383;29;20072;-70
2022/07/28 06:52:19;;;;;;;3.20;0.93;;;27.30;69.20;;;;;;4877815;29;20433;-70
2022/07/28 06:54:49;;;;;;;1.67;0.82;;;27.60;69.00;;;;;;4860388;29;20057;-70
2022/07/28 06:57:16;;;;;;;2.05;0.80;;;28.00;67.10;;;;;;4877758;29;20574;-71
2022/07/28 06:59:45;;;;;;;0.77;0.70;;;28.20;68.30;;;;;;4876235;29;20053;-71
2022/07/28 07:02:14;;;;;;;2.05;0.98;;;28.50;66.10;;;;;;4877305;29;20060;-70
2022/07/28 07:04:41;;;;;;;1.63;1.08;;;28.70;65.20;;;;;;4876528;29;20052;-71
2022/07/28 07:07:08;;;;;;;1.98;0.60;;;29.00;64.30;;;;;;4875906;29;20083;-71
2022/07/28 07:09:35;;;;;;;0.90;0.80;;;29.30;62.60;;;;;;4877283;29;20069;-71
2022/07/28 07:12:03;;;;;;;3.45;0.75;;;29.60;60.00;;;;;;4876284;29;20088;-71
2022/07/28 07:14:31;;;;;;;1.85;0.80;;;29.80;59.40;;;;;;4877422;29;20057;-71
2022/07/28 07:16:58;;;;;;;2.47;1.00;;;30.10;59.70;;;;;;4877493;29;20063;-71
2022/07/28 07:19:26;;;;;;;1.92;0.85;;;30.20;58.20;;;;;;4877197;29;20590;-70
2022/07/28 07:21:54;;;;;;;2.83;0.80;;;30.40;57.60;;;;;;4875928;29;20067;-70
2022/07/28 07:24:21;;;;;;;2.08;1.30;;;30.70;57.50;;;;;;4877464;29;20052;-70
2022/07/28 07:26:49;;;;;;;3.63;0.55;;;31.00;56.50;;;;;;4875694;29;20064;-71
2022/07/28 07:29:16;;;;;;;3.08;1.23;;;30.90;55.40;;;;;;4877074;29;20056;-71
2022/07/28 07:31:43;;;;;;;7.22;1.00;;;30.80;56.30;;;;;;4876967;29;20148;-70
2022/07/28 07:34:10;;;;;;;3.67;1.02;;;30.80;55.70;;;;;;4876801;29;20446;-70
2022/07/28 07:36:39;;;;;;;4.43;1.00;;;30.70;56.30;;;;;;4877230;29;20069;-71
2022/07/28 07:39:06;;;;;;;2.70;1.00;;;30.40;55.60;;;;;;4875742;29;20518;-70
2022/07/28 07:41:33;;;;;;;2.05;0.70;;;30.20;57.20;;;;;;4875314;29;20148;-71
2022/07/28 07:44:00;;;;;;;2.35;0.90;;;29.70;57.70;;;;;;4875951;29;20080;-70
2022/07/28 07:46:27;;;;;;;3.33;0.85;;;29.30;58.20;;;;;;4877032;29;20060;-70
2022/07/28 07:48:55;;;;;;;1.45;0.90;;;29.20;58.30;;;;;;4877158;29;20049;-70
2022/07/28 07:51:22;;;;;;;1.42;0.52;;;29.40;58.70;;;;;;4877022;29;20077;-71
2022/07/28 07:53:50;;;;;;;2.33;0.60;;;29.60;58.40;;;;;;4888729;29;20066;-71
2022/07/28 07:56:17;;;;;;;1.95;0.70;;;30.20;57.50;;;;;;4891073;29;20089;-71
2022/07/28 07:58:45;;;;;;;3.83;2.15;;;30.60;56.70;;;;;;4877418;29;20053;-76
2022/07/28 08:01:12;;;;;;;1.85;0.85;;;30.20;57.00;;;;;;4891048;29;20092;-75
2022/07/28 08:03:40;;;;;;;1.65;1.02;;;29.70;57.30;;;;;;4877115;29;20053;-74
2022/07/28 08:06:07;;;;;;;2.58;0.80;;;29.50;57.80;;;;;;4876998;29;20049;-74
2022/07/28 08:08:34;;;;;;;6.47;1.50;;;29.10;58.20;;;;;;4879211;29;20085;-74
2022/07/28 08:11:03;;;;;;;7.65;0.88;;;28.60;59.90;;;;;;4908161;29;20056;-74
2022/07/28 08:13:30;;;;;;;1.02;0.70;;;28.70;59.30;;;;;;4904636;29;20052;-74
2022/07/28 08:15:58;;;;;;;6.05;0.88;;;29.50;57.70;;;;;;4905628;29;20049;-74
2022/07/28 08:18:25;;;;;;;4.32;0.70;;;30.20;57.20;;;;;;4906627;29;20048;-74
2022/07/28 08:20:52;;;;;;;4.80;1.42;;;30.70;55.40;;;;;;4905858;29;20071;-74
2022/07/28 08:23:20;;;;;;;2.60;0.75;;;31.30;56.70;;;;;;4907850;29;20751;-74
2022/07/28 08:25:47;;;;;;;2.92;0.70;;;31.70;54.10;;;;;;4908375;29;20083;-74
2022/07/28 08:28:15;;;;;;;5.65;0.95;;;32.00;54.00;;;;;;4906680;29;20052;-74
2022/07/28 08:30:43;;;;;;;2.35;0.70;;;32.30;52.90;;;;;;4904968;29;20052;-74
2022/07/28 08:33:10;;;;;;;3.85;0.90;;;32.50;53.10;;;;;;4906022;29;20064;-77
2022/07/28 08:35:37;;;;;;;3.85;0.85;;;32.90;52.30;;;;;;4908553;29;20103;-77
2022/07/28 08:38:05;;;;;;;5.35;2.63;;;33.00;51.70;;;;;;4909097;29;20052;-71
2022/07/28 08:40:32;;;;;;;2.17;0.73;;;32.90;51.70;;;;;;4904798;29;20047;-71
2022/07/28 08:43:06;;;;;;;4.07;0.90;;;32.70;52.00;;;;;;4908862;29;20390;-71
2022/07/28 08:45:36;;;;;;;2.55;1.20;;;32.60;52.90;;;;;;4906547;29;20513;-72
2022/07/28 08:48:05;;;;;;;4.45;0.85;;;32.60;52.80;;;;;;4906528;29;20504;-72
2022/07/28 08:50:32;;;;;;;2.45;0.65;;;32.70;54.00;;;;;;4907286;29;20406;-72
2022/07/28 08:53:01;;;;;;;1.83;0.60;;;32.60;52.60;;;;;;4896508;29;20561;-72
2022/07/28 08:55:29;;;;;;;2.58;0.65;;;32.70;53.60;;;;;;4898246;29;20082;-72
2022/07/28 08:57:58;;;;;;;0.57;0.50;;;32.10;52.70;;;;;;4903988;29;20111;-72
2022/07/28 09:00:27;;;;;;;4.57;1.00;;;31.30;53.00;;;;;;4904044;29;20052;-72
2022/07/28 09:02:56;;;;;;;2.97;0.75;;;30.70;55.60;;;;;;4906464;29;20072;-72
2022/07/28 09:05:23;;;;;;;5.10;1.05;;;30.50;54.60;;;;;;4902687;29;20067;-72
2022/07/28 09:07:54;;;;;;;3.50;0.88;;;30.20;54.50;;;;;;4905844;29;20108;-72
2022/07/28 09:10:22;;;;;;;3.28;0.90;;;29.60;56.80;;;;;;4886862;29;20088;-71
2022/07/28 09:12:49;;;;;;;7.07;4.38;;;29.40;57.30;;;;;;4906316;29;20072;-71
2022/07/28 09:15:16;;;;;;;2.67;1.15;;;29.40;57.00;;;;;;4907300;29;20135;-71
2022/07/28 09:17:43;;;;;;;1.60;0.80;;;30.00;57.70;;;;;;4904878;29;20123;-71
2022/07/28 09:20:13;;;;;;;1.38;1.02;;;30.50;55.80;;;;;;4905872;29;20079;-71
2022/07/28 09:22:58;;;;;;;1.90;0.63;;;30.80;56.10;;;;;;4902816;29;20052;-71
2022/07/28 09:25:28;;;;;;;1.25;1.13;;;30.90;53.20;;;;;;4910353;29;20101;-71
2022/07/28 09:27:56;;;;;;;6.05;1.13;;;30.50;54.90;;;;;;4906430;29;20048;-70
2022/07/28 09:30:34;;;;;;;3.47;1.08;;;29.80;55.90;;;;;;4895839;29;20474;-70
2022/07/28 09:33:17;;;;;;;2.28;1.15;;;29.00;56.10;;;;;;4897925;29;20048;-70
2022/07/28 09:35:47;;;;;;;1.88;0.80;;;28.60;57.70;;;;;;4897769;29;20112;-70
2022/07/28 09:38:15;;;;;;;4.15;0.70;;;28.40;57.20;;;;;;4897774;29;20411;-70
2022/07/28 09:40:44;;;;;;;5.47;1.10;;;28.10;58.40;;;;;;4897503;29;20052;-71
2022/07/28 09:43:11;;;;;;;2.65;0.98;;;28.10;57.80;;;;;;4897417;29;20079;-72
2022/07/28 09:45:38;;;;;;;2.03;0.80;;;28.00;59.30;;;;;;4895286;29;20055;-70
2022/07/28 09:48:10;;;;;;;0.80;0.80;;;27.80;60.20;;;;;;4896153;29;20087;-71
2022/07/28 09:50:38;;;;;;;6.20;3.13;;;27.30;59.60;;;;;;4892858;29;20047;-70
2022/07/28 09:53:24;;;;;;;2.22;0.70;;;27.10;60.20;;;;;;4894830;29;20052;-71
2022/07/28 09:55:56;;;;;;;1.88;1.15;;;27.10;61.50;;;;;;4896586;29;20155;-71
2022/07/28 09:58:23;;;;;;;4.82;3.58;;;26.90;60.90;;;;;;4900823;29;20052;-70
2022/07/28 10:00:51;;;;;;;1.70;0.60;;;26.70;62.60;;;;;;4897017;29;20535;-72
2022/07/28 10:03:27;;;;;;;1.63;0.50;;;27.10;62.80;;;;;;4897307;29;20104;-70
2022/07/28 10:05:57;;;;;;;3.13;1.10;;;27.40;61.20;;;;;;4896224;29;20049;-70
2022/07/28 10:08:54;;;;;;;2.88;1.00;;;26.70;62.00;;;;;;4896046;29;20230;-71
2022/07/28 10:11:25;;;;;;;1.85;1.08;;;26.00;63.50;;;;;;4864211;29;20057;-72
2022/07/28 10:13:55;;;;;;;1.33;1.00;;;25.70;64.50;;;;;;4897319;29;20065;-71
2022/07/28 10:16:24;;;;;;;2.88;0.85;;;25.40;65.70;;;;;;4894332;29;20060;-71
2022/07/28 10:18:51;;;;;;;0.73;0.50;;;25.20;65.30;;;;;;4896711;29;20067;-70
2022/07/28 10:21:20;;;;;;;3.30;1.23;;;24.90;66.20;;;;;;4894930;29;20055;-71
2022/07/28 10:23:49;;;;;;;2.95;1.00;;;24.60;67.70;;;;;;4895543;29;20148;-70
2022/07/28 10:26:20;;;;;;;2.85;1.00;;;24.50;68.40;;;;;;4895662;29;20048;-71
2022/07/28 10:28:51;;;;;;;2.63;1.00;;;24.50;69.30;;;;;;4895605;29;20496;-72
2022/07/28 10:31:28;;;;;;;1.08;0.60;;;24.30;68.70;;;;;;4896853;29;20532;-71
2022/07/28 10:33:58;;;;;;;1.60;1.35;;;24.10;69.20;;;;;;4895402;29;20139;-71
2022/07/28 10:36:27;;;;;;;3.03;0.98;;;25.30;69.10;;;;;;4896422;29;20072;-71
2022/07/28 10:39:01;;;;;;;3.78;1.05;;;27.50;66.00;;;;;;4897037;29;20057;-72
2022/07/28 10:41:39;;;;;;;5.50;0.73;;;29.60;62.80;;;;;;4894736;29;20060;-71
2022/07/28 10:44:08;;;;;;;2.58;1.08;;;31.10;59.20;;;;;;4897033;29;20105;-71
2022/07/28 10:46:37;;;;;;;4.15;0.82;;;31.80;57.10;;;;;;4895188;29;20483;-72
2022/07/28 10:49:05;;;;;;;3.05;0.93;;;32.50;55.20;;;;;;4895116;29;20426;-72
2022/07/28 10:51:32;;;;;;;2.30;1.20;;;32.70;54.30;;;;;;4895608;29;20086;-73
2022/07/28 10:54:08;;;;;;;1.35;0.68;;;32.80;53.10;;;;;;4895338;29;20391;-72
2022/07/28 10:56:46;;;;;;;2.60;0.70;;;33.40;53.90;;;;;;4896754;29;20052;-72
2022/07/28 10:59:36;;;;;;;2.15;1.08;;;34.20;51.30;;;;;;4896190;29;20055;-71
2022/07/28 11:02:03;;;;;;;1.50;1.05;;;35.10;51.20;;;;;;4894577;29;20089;-70
2022/07/28 11:05:00;;;;;;;4.35;2.25;;;35.50;49.40;;;;;;4896268;29;20068;-71
2022/07/28 11:07:38;;;;;;;2.30;1.05;;;35.60;50.10;;;;;;4873978;29;20493;-70
2022/07/28 11:10:16;;;;;;;3.67;2.55;;;36.00;48.60;;;;;;4895206;29;20084;-71
2022/07/28 11:12:49;;;;;;;1.80;1.70;;;36.80;48.90;;;;;;4896426;29;20060;-70
2022/07/28 11:15:33;;;;;;;3.65;2.67;;;37.20;47.00;;;;;;4896300;29;20079;-70
2022/07/28 11:18:03;;;;;;;4.18;2.08;;;37.60;47.00;;;;;;4878853;29;20064;-71
2022/07/28 11:21:05;;;;;;;20.27;8.13;;;37.80;46.40;;;;;;4894967;29;20525;-71
2022/07/28 11:23:47;;;;;;;;;;;38.20;45.50;;;;;;4896915;29;20083;-71
2022/07/28 11:26:37;;;;;;;2.15;0.68;;;37.70;46.00;;;;;;4894869;29;19927;-71
2022/07/28 11:29:16;;;;;;;2.85;0.90;;;35.50;46.50;;;;;;4896432;29;20147;-71
2022/07/28 11:32:00;;;;;;;6.03;2.65;;;33.20;49.10;;;;;;4895849;29;20049;-71
2022/07/28 11:34:47;;;;;;;5.00;1.52;;;31.50;51.30;;;;;;4894407;29;20059;-71
2022/07/28 11:37:15;;;;;;;8.18;2.58;;;30.30;53.00;;;;;;4894986;29;20071;-70
2022/07/28 11:39:42;;;;;;;11.20;5.07;;;29.30;56.10;;;;;;4895886;29;20100;-71
2022/07/28 11:42:28;;;;;;;7.68;3.90;;;28.50;56.80;;;;;;4895801;29;20064;-70
2022/07/28 11:44:57;;;;;;;5.75;2.10;;;27.90;58.80;;;;;;4896134;29;20324;-73
2022/07/28 11:47:27;;;;;;;12.05;4.18;;;27.40;59.20;;;;;;4895723;29;20501;-71
2022/07/28 11:50:14;;;;;;;5.07;1.50;;;27.10;60.00;;;;;;4895531;29;20053;-71
2022/07/28 11:52:53;;;;;;;3.50;0.70;;;28.10;60.30;;;;;;4895457;29;20060;-71
2022/07/28 11:55:21;;;;;;;6.00;1.15;;;30.50;54.90;;;;;;4878739;29;20505;-71
2022/07/28 11:57:48;;;;;;;2.63;0.80;;;32.40;52.70;;;;;;4895528;29;20057;-71
2022/07/28 12:00:22;;;;;;;4.88;1.00;;;33.90;51.50;;;;;;4893755;29;20048;-71
2022/07/28 12:02:49;;;;;;;1.77;0.93;;;34.60;48.40;;;;;;4876766;29;20139;-71
2022/07/28 12:05:17;;;;;;;2.70;0.90;;;34.50;48.80;;;;;;4891351;29;20141;-71
2022/07/28 12:07:47;;;;;;;3.70;2.83;;;35.10;48.80;;;;;;4877040;29;20053;-71
2022/07/28 12:10:41;;;;;;;8.95;3.83;;;35.70;48.40;;;;;;4876820;29;20467;-71
2022/07/28 12:13:08;;;;;;;1.65;1.10;;;35.70;47.40;;;;;;4852811;29;20522;-72
2022/07/28 12:15:37;;;;;;;2.33;1.13;;;34.60;47.60;;;;;;4882842;29;20053;-71
2022/07/28 12:18:04;;;;;;;10.00;1.98;;;33.40;49.60;;;;;;4876849;29;20085;-71
2022/07/28 12:20:32;;;;;;;7.30;2.22;;;32.30;51.60;;;;;;4879369;29;20136;-71
2022/07/28 12:23:04;;;;;;;2.97;1.30;;;31.10;53.20;;;;;;4893824;29;20056;-71
2022/07/28 12:25:40;;;;;;;1.83;1.00;;;30.00;54.30;;;;;;4892865;29;20138;-71
2022/07/28 12:28:15;;;;;;;1.35;0.70;;;28.90;56.50;;;;;;4893721;29;20057;-71
2022/07/28 12:30:44;;;;;;;4.13;0.90;;;28.00;56.70;;;;;;4895021;29;20063;-71
2022/07/28 12:33:22;;;;;;;5.50;1.00;;;27.10;58.80;;;;;;4893880;29;20079;-71
2022/07/28 12:35:52;;;;;;;1.13;0.90;;;26.70;60.50;;;;;;4894902;29;20127;-70
2022/07/28 12:38:22;;;;;;;7.00;1.50;;;26.70;61.40;;;;;;4893667;29;20438;-71
2022/07/28 12:40:49;;;;;;;6.05;1.20;;;27.80;61.90;;;;;;4895203;29;20101;-70
2022/07/28 12:43:20;;;;;;;4.60;0.90;;;29.80;58.50;;;;;;4892754;29;20492;-71
2022/07/28 12:45:48;;;;;;;1.35;0.90;;;30.80;55.30;;;;;;4893463;29;20588;-71
2022/07/28 12:48:17;;;;;;;1.08;0.60;;;30.80;55.20;;;;;;4877395;29;20053;-71
2022/07/28 12:50:45;;;;;;;4.70;0.93;;;30.20;54.60;;;;;;4888694;29;20057;-71
2022/07/28 12:53:13;;;;;;;1.92;0.80;;;29.30;55.50;;;;;;4889711;29;20044;-71
2022/07/28 12:55:42;;;;;;;1.10;0.90;;;28.50;56.70;;;;;;4894971;29;20052;-72
2022/07/28 12:58:23;;;;;;;2.08;1.10;;;27.70;57.40;;;;;;4895268;29;20071;-72
2022/07/28 13:00:52;;;;;;;2.83;0.55;;;27.30;58.80;;;;;;4894300;29;20053;-72
2022/07/28 13:03:22;;;;;;;1.75;0.82;;;28.40;58.60;;;;;;4896953;29;20616;-73
2022/07/28 13:06:02;;;;;;;2.83;1.10;;;30.80;57.50;;;;;;4898203;29;20433;-73